QFA334 EHRD-EDDF
Flight info
| Callsign | QFA334 |
|---|---|
| Flight time | N/A |
| Altitude | 31000 |
| Route | LUNIX Z739 MISGO DCT DIXAT T149 LIPMI T911 ROLIS ROLIS5A |
| Aircraft | B789/H-SDE1E2E3FGHIJ2J3J4J5M1RWXY/LB1D1 |
Departure
| Time | 2026-05-04 14:57 |
|---|---|
| Airport | Rotterdam The Hague Airport (EHRD) |
Arrival
| Time | N/A |
|---|---|
| Airport | Frankfurt Main Airport (EDDF) |
| Time | Latitude | Longitude | Altitude | Speed | Heading |
|---|---|---|---|---|---|
| 2026-05-04 14:38 | 51.95103 | 4.43495 | -15 ft | 0 kts | 327° |
| 2026-05-04 14:52 | 51.95115 | 4.43482 | 0 ft | 4 kts | 327° |
| 2026-05-04 14:52 | 51.95132 | 4.43473 | 0 ft | 0 kts | 356° |
| 2026-05-04 14:52 | 51.95141 | 4.43476 | 0 ft | 3 kts | 14° |
| 2026-05-04 14:53 | 51.95177 | 4.43484 | 0 ft | 7 kts | 351° |
| 2026-05-04 14:53 | 51.95226 | 4.43443 | 1 ft | 5 kts | 307° |
| 2026-05-04 14:53 | 51.95228 | 4.43406 | 0 ft | 4 kts | 261° |
| 2026-05-04 14:53 | 51.95209 | 4.43345 | 0 ft | 8 kts | 231° |
| 2026-05-04 14:54 | 51.95185 | 4.43301 | 0 ft | 9 kts | 226° |
| 2026-05-04 14:54 | 51.95178 | 4.43290 | 0 ft | 0 kts | 226° |
| 2026-05-04 14:55 | 51.95170 | 4.43261 | 0 ft | 6 kts | 251° |
| 2026-05-04 14:55 | 51.95142 | 4.43144 | 0 ft | 16 kts | 246° |
| 2026-05-04 14:56 | 51.95122 | 4.42954 | 0 ft | 15 kts | 301° |
| 2026-05-04 14:56 | 51.95197 | 4.42876 | 0 ft | 9 kts | 0° |
| 2026-05-04 14:56 | 51.95233 | 4.42908 | 0 ft | 6 kts | 41° |
| 2026-05-04 14:56 | 51.95261 | 4.42961 | 0 ft | 8 kts | 56° |
| 2026-05-04 14:57 | 51.95348 | 4.43170 | 1 ft | 50 kts | 56° |
| 2026-05-04 14:57 | 51.95685 | 4.44002 | 1 ft | 124 kts | 57° |
| 2026-05-04 14:57 | 51.96210 | 4.45404 | 263 ft | 153 kts | 62° |
| 2026-05-04 14:57 | 51.96731 | 4.46991 | 842 ft | 166 kts | 62° |
| 2026-05-04 14:58 | 51.97266 | 4.48577 | 1596 ft | 172 kts | 58° |
| 2026-05-04 14:58 | 51.97938 | 4.50407 | 2001 ft | 196 kts | 58° |
| 2026-05-04 14:58 | 51.98630 | 4.52462 | 2381 ft | 219 kts | 61° |
| 2026-05-04 14:58 | 51.99123 | 4.53990 | 2665 ft | 232 kts | 62° |
| 2026-05-04 14:59 | 52.00252 | 4.57115 | 2970 ft | 258 kts | 45° |
| 2026-05-04 14:59 | 52.01789 | 4.58600 | 3003 ft | 261 kts | 22° |
| 2026-05-04 14:59 | 52.05100 | 4.61109 | 2984 ft | 263 kts | 38° |
| 2026-05-04 15:00 | 52.06184 | 4.63437 | 3233 ft | 257 kts | 65° |
| 2026-05-04 15:00 | 52.06433 | 4.66365 | 3750 ft | 263 kts | 99° |
| 2026-05-04 15:00 | 52.06208 | 4.69309 | 4829 ft | 268 kts | 95° |
| 2026-05-04 15:01 | 52.05846 | 4.75429 | 6680 ft | 277 kts | 97° |
| 2026-05-04 15:01 | 52.05606 | 4.78552 | 7581 ft | 280 kts | 97° |
| 2026-05-04 15:01 | 52.05371 | 4.81715 | 8483 ft | 283 kts | 97° |
| 2026-05-04 15:01 | 52.05143 | 4.84918 | 9361 ft | 287 kts | 97° |
| 2026-05-04 15:02 | 52.04909 | 4.88166 | 10214 ft | 292 kts | 97° |
| 2026-05-04 15:02 | 52.04658 | 4.91581 | 10455 ft | 319 kts | 97° |
| 2026-05-04 15:02 | 52.04382 | 4.95314 | 10616 ft | 346 kts | 97° |
| 2026-05-04 15:02 | 52.04088 | 4.99326 | 10964 ft | 364 kts | 97° |
| 2026-05-04 15:03 | 52.03787 | 5.03406 | 11800 ft | 366 kts | 97° |
| 2026-05-04 15:03 | 52.03478 | 5.07555 | 12540 ft | 372 kts | 97° |
| 2026-05-04 15:03 | 52.03164 | 5.11744 | 13307 ft | 376 kts | 97° |
| 2026-05-04 15:03 | 52.02850 | 5.15930 | 14028 ft | 380 kts | 97° |
| 2026-05-04 15:04 | 52.02527 | 5.20216 | 14706 ft | 384 kts | 97° |
| 2026-05-04 15:04 | 52.02197 | 5.24554 | 15375 ft | 388 kts | 97° |
| 2026-05-04 15:04 | 52.01863 | 5.28936 | 16043 ft | 392 kts | 97° |
| 2026-05-04 15:04 | 52.01525 | 5.33344 | 16688 ft | 395 kts | 97° |
| 2026-05-04 15:05 | 52.01299 | 5.36281 | 17106 ft | 398 kts | 97° |
| 2026-05-04 15:05 | 52.00953 | 5.40767 | 17741 ft | 402 kts | 97° |
| 2026-05-04 15:05 | 52.00601 | 5.45291 | 18340 ft | 405 kts | 97° |
| 2026-05-04 15:05 | 52.00245 | 5.49852 | 18864 ft | 409 kts | 98° |
| 2026-05-04 15:06 | 51.99884 | 5.54446 | 19376 ft | 413 kts | 98° |
| 2026-05-04 15:06 | 51.99518 | 5.59084 | 19872 ft | 416 kts | 98° |
| 2026-05-04 15:06 | 51.98578 | 5.70897 | 21136 ft | 425 kts | 99° |
| 2026-05-04 15:07 | 51.86478 | 6.02593 | 24571 ft | 434 kts | 135° |
| 2026-05-04 15:07 | 51.78188 | 6.16687 | 25929 ft | 441 kts | 137° |
| 2026-05-04 15:07 | 51.69662 | 6.31133 | 27216 ft | 448 kts | 137° |
| 2026-05-04 15:07 | 51.60986 | 6.45746 | 28430 ft | 455 kts | 138° |
| 2026-05-04 15:08 | 51.55054 | 6.55690 | 29248 ft | 460 kts | 139° |
| 2026-05-04 15:08 | 51.46964 | 6.69177 | 30866 ft | 452 kts | 139° |
| 2026-05-04 15:08 | 51.38075 | 6.83920 | 30984 ft | 454 kts | 139° |
| 2026-05-04 15:09 | 51.28510 | 6.99677 | 30985 ft | 452 kts | 139° |
| 2026-05-04 15:09 | 51.22760 | 7.09098 | 30971 ft | 452 kts | 139° |
| 2026-05-04 15:10 | 51.18344 | 7.16312 | 30586 ft | 455 kts | 139° |
| 2026-05-04 15:10 | 51.16140 | 7.19907 | 30281 ft | 451 kts | 139° |
| 2026-05-04 15:10 | 51.11666 | 7.26862 | 29656 ft | 445 kts | 147° |
| 2026-05-04 15:11 | 51.09099 | 7.29577 | 29357 ft | 443 kts | 153° |
| 2026-05-04 15:11 | 51.06420 | 7.32013 | 29020 ft | 443 kts | 155° |
| 2026-05-04 15:11 | 51.03762 | 7.34330 | 28509 ft | 437 kts | 154° |
| 2026-05-04 15:11 | 51.01162 | 7.36695 | 28335 ft | 429 kts | 153° |
| 2026-05-04 15:12 | 50.98579 | 7.39101 | 28186 ft | 435 kts | 153° |
| 2026-05-04 15:12 | 50.95922 | 7.41530 | 27918 ft | 444 kts | 154° |
| 2026-05-04 15:12 | 50.93234 | 7.43953 | 27237 ft | 439 kts | 154° |
| 2026-05-04 15:12 | 50.90573 | 7.46366 | 26557 ft | 439 kts | 154° |
| 2026-05-04 15:13 | 50.87961 | 7.48748 | 25879 ft | 420 kts | 153° |
| 2026-05-04 15:13 | 50.85514 | 7.50979 | 25233 ft | 393 kts | 154° |
| 2026-05-04 15:13 | 50.83143 | 7.53112 | 24629 ft | 394 kts | 154° |
| 2026-05-04 15:13 | 50.80751 | 7.55260 | 24001 ft | 395 kts | 154° |
| 2026-05-04 15:14 | 50.78360 | 7.57422 | 23346 ft | 396 kts | 153° |
| 2026-05-04 15:14 | 50.75973 | 7.59583 | 22707 ft | 394 kts | 153° |
| 2026-05-04 15:14 | 50.73599 | 7.61721 | 22104 ft | 391 kts | 153° |
| 2026-05-04 15:14 | 50.71240 | 7.63840 | 21502 ft | 389 kts | 153° |
| 2026-05-04 15:15 | 50.68892 | 7.65949 | 20887 ft | 388 kts | 153° |
| 2026-05-04 15:15 | 50.66573 | 7.68030 | 20294 ft | 389 kts | 153° |
| 2026-05-04 15:15 | 50.64214 | 7.70145 | 19688 ft | 391 kts | 153° |
| 2026-05-04 15:16 | 50.59505 | 7.74361 | 18466 ft | 388 kts | 153° |
| 2026-05-04 15:16 | 50.57162 | 7.76454 | 17821 ft | 385 kts | 153° |
| 2026-05-04 15:16 | 50.52552 | 7.80565 | 16651 ft | 376 kts | 152° |
| 2026-05-04 15:17 | 50.50293 | 7.82576 | 16076 ft | 371 kts | 152° |
| 2026-05-04 15:17 | 50.45838 | 7.86535 | 14927 ft | 364 kts | 152° |
| 2026-05-04 15:17 | 50.43758 | 7.88740 | 14377 ft | 362 kts | 137° |
| 2026-05-04 15:18 | 50.42405 | 7.91589 | 13911 ft | 362 kts | 119° |
| 2026-05-04 15:18 | 50.41636 | 7.95326 | 13428 ft | 360 kts | 102° |
| 2026-05-04 15:18 | 50.41385 | 7.99181 | 13092 ft | 351 kts | 96° |
| 2026-05-04 15:19 | 50.41280 | 8.06649 | 12528 ft | 339 kts | 93° |
| 2026-05-04 15:19 | 50.41270 | 8.10367 | 12284 ft | 342 kts | 93° |
| 2026-05-04 15:19 | 50.41260 | 8.17779 | 11752 ft | 335 kts | 93° |
| 2026-05-04 15:20 | 50.41259 | 8.21448 | 11504 ft | 338 kts | 93° |
| 2026-05-04 15:20 | 50.41258 | 8.25137 | 11243 ft | 334 kts | 93° |
| 2026-05-04 15:20 | 50.41262 | 8.28667 | 10988 ft | 323 kts | 93° |
| 2026-05-04 15:20 | 50.41271 | 8.32159 | 10735 ft | 312 kts | 93° |
| 2026-05-04 15:21 | 50.41284 | 8.35492 | 10548 ft | 296 kts | 93° |
| 2026-05-04 15:21 | 50.41303 | 8.38599 | 10422 ft | 283 kts | 93° |
| 2026-05-04 15:21 | 50.41335 | 8.44896 | 9989 ft | 292 kts | 95° |
| 2026-05-04 15:22 | 50.41000 | 8.47959 | 9974 ft | 283 kts | 109° |
| 2026-05-04 15:22 | 50.40401 | 8.50920 | 9995 ft | 286 kts | 112° |
| 2026-05-04 15:22 | 50.39085 | 8.56816 | 9979 ft | 287 kts | 113° |
| 2026-05-04 15:23 | 50.38417 | 8.59759 | 9974 ft | 287 kts | 113° |
| 2026-05-04 15:23 | 50.37751 | 8.62697 | 9978 ft | 287 kts | 113° |
| 2026-05-04 15:23 | 50.37073 | 8.65669 | 9744 ft | 292 kts | 113° |
| 2026-05-04 15:23 | 50.36394 | 8.68641 | 9401 ft | 287 kts | 113° |
| 2026-05-04 15:24 | 50.35055 | 8.74489 | 8713 ft | 284 kts | 113° |
| 2026-05-04 15:24 | 50.33714 | 8.80287 | 8052 ft | 283 kts | 113° |
| 2026-05-04 15:25 | 50.33038 | 8.83007 | 7735 ft | 279 kts | 119° |
| 2026-05-04 15:25 | 50.31708 | 8.85147 | 7384 ft | 271 kts | 152° |
| 2026-05-04 15:25 | 50.30025 | 8.86353 | 7065 ft | 269 kts | 161° |
| 2026-05-04 15:26 | 50.26518 | 8.88286 | 6431 ft | 266 kts | 163° |
| 2026-05-04 15:26 | 50.24770 | 8.89210 | 6099 ft | 266 kts | 163° |
| 2026-05-04 15:26 | 50.21265 | 8.91063 | 5430 ft | 266 kts | 163° |
| 2026-05-04 15:27 | 50.19517 | 8.91990 | 5119 ft | 259 kts | 163° |
| 2026-05-04 15:27 | 50.16295 | 8.93733 | 4382 ft | 240 kts | 163° |
| 2026-05-04 15:28 | 50.13287 | 8.94326 | 3907 ft | 205 kts | 208° |
| 2026-05-04 15:28 | 50.12278 | 8.92811 | 3989 ft | 208 kts | 240° |
| 2026-05-04 15:28 | 50.11162 | 8.88716 | 4032 ft | 201 kts | 250° |
| 2026-05-04 15:29 | 50.10687 | 8.86727 | 4017 ft | 189 kts | 250° |
| 2026-05-04 15:30 | 50.08985 | 8.79599 | 3167 ft | 171 kts | 251° |
| 2026-05-04 15:30 | 50.07828 | 8.74742 | 2469 ft | 138 kts | 252° |
| 2026-05-04 15:31 | 50.07215 | 8.72111 | 2037 ft | 132 kts | 252° |
| 2026-05-04 15:31 | 50.06894 | 8.70777 | 2002 ft | 133 kts | 252° |
| 2026-05-04 15:32 | 50.05934 | 8.66738 | 1467 ft | 129 kts | 252° |
| 2026-05-04 15:32 | 50.05281 | 8.64005 | 1135 ft | 135 kts | 250° |
| 2026-05-04 15:33 | 50.04625 | 8.61238 | 754 ft | 134 kts | 250° |
| 2026-05-04 15:34 | 50.03716 | 8.57445 | 366 ft | 84 kts | 250° |